createdAt,value
2023-03-03T00:02:11.919Z,10.70
2023-03-03T00:04:41.037Z,10.70
2023-03-03T00:07:09.913Z,10.70
2023-03-03T00:09:38.727Z,10.70
2023-03-03T00:12:23.065Z,10.60
2023-03-03T00:14:52.402Z,10.60
2023-03-03T00:17:24.642Z,10.60
2023-03-03T00:19:54.451Z,10.60
2023-03-03T00:22:31.121Z,10.60
2023-03-03T00:25:02.502Z,10.60
2023-03-03T00:27:51.476Z,10.60
2023-03-03T00:30:25.010Z,10.60
2023-03-03T00:32:55.180Z,10.60
2023-03-03T00:35:35.589Z,10.70
2023-03-03T00:38:14.024Z,10.60
2023-03-03T00:40:43.134Z,10.70
2023-03-03T00:43:21.505Z,10.60
2023-03-03T00:45:52.047Z,10.60
2023-03-03T00:48:27.626Z,10.60
2023-03-03T00:50:57.824Z,10.60
2023-03-03T00:53:28.272Z,10.70
2023-03-03T00:55:57.670Z,10.60
2023-03-03T00:58:28.506Z,10.60
2023-03-03T01:00:59.111Z,10.70
2023-03-03T01:03:41.968Z,10.70
2023-03-03T01:06:12.956Z,10.70
2023-03-03T01:08:42.334Z,10.70
2023-03-03T01:11:14.324Z,10.70
2023-03-03T01:13:47.517Z,10.60
2023-03-03T01:16:16.402Z,10.70
2023-03-03T01:18:45.596Z,10.60
2023-03-03T01:21:14.940Z,10.60
2023-03-03T01:23:43.866Z,10.60
2023-03-03T01:26:12.690Z,10.60
2023-03-03T01:28:43.962Z,10.60
2023-03-03T01:31:12.992Z,10.60
2023-03-03T01:33:41.849Z,10.60
2023-03-03T01:36:11.107Z,10.80
2023-03-03T01:38:40.781Z,10.60
2023-03-03T01:41:09.653Z,10.60
2023-03-03T01:43:47.367Z,10.60
2023-03-03T01:46:53.306Z,10.60
2023-03-03T01:49:26.949Z,10.60
2023-03-03T01:51:58.986Z,10.60
2023-03-03T01:54:32.029Z,10.60
2023-03-03T01:57:14.293Z,10.60
2023-03-03T01:59:49.453Z,10.60
2023-03-03T02:02:19.693Z,10.60
2023-03-03T02:04:48.849Z,10.60
2023-03-03T02:07:19.979Z,10.60
2023-03-03T02:09:56.828Z,10.60
2023-03-03T02:12:35.009Z,10.50
2023-03-03T02:15:27.264Z,10.50
2023-03-03T02:17:58.957Z,10.50
2023-03-03T02:20:45.985Z,10.50
2023-03-03T02:23:23.670Z,10.60
2023-03-03T02:26:11.273Z,10.60
2023-03-03T02:28:42.327Z,10.60
2023-03-03T02:31:16.082Z,10.60
2023-03-03T02:33:48.076Z,10.60
2023-03-03T02:36:19.331Z,10.60
2023-03-03T02:38:53.168Z,10.60
2023-03-03T02:41:34.689Z,10.60
2023-03-03T02:44:07.281Z,10.60
2023-03-03T02:46:55.912Z,10.60
2023-03-03T02:49:27.175Z,10.60
2023-03-03T02:51:56.526Z,10.60
2023-03-03T02:54:31.217Z,10.60
2023-03-03T02:57:03.920Z,10.60
2023-03-03T02:59:34.236Z,10.60
2023-03-03T03:02:10.457Z,10.60
2023-03-03T03:04:39.449Z,10.50
2023-03-03T03:07:08.470Z,10.50
2023-03-03T03:09:39.607Z,10.50
2023-03-03T03:12:10.196Z,10.40
2023-03-03T03:14:39.256Z,10.40
2023-03-03T03:17:09.207Z,10.40
2023-03-03T03:19:38.051Z,10.40
2023-03-03T03:22:07.150Z,10.40
2023-03-03T03:24:37.687Z,10.40
2023-03-03T03:27:11.387Z,10.50
2023-03-03T03:29:42.476Z,10.40
2023-03-03T03:32:14.692Z,10.40
2023-03-03T03:34:43.898Z,10.40
2023-03-03T03:37:13.766Z,10.40
2023-03-03T03:39:44.414Z,10.50
2023-03-03T03:42:33.472Z,10.50
2023-03-03T03:45:03.631Z,10.50
2023-03-03T03:47:33.937Z,10.50
2023-03-03T03:50:02.904Z,10.50
2023-03-03T03:52:31.814Z,10.50
2023-03-03T03:55:00.855Z,10.60
2023-03-03T03:57:30.690Z,10.60
2023-03-03T04:00:01.734Z,10.60
2023-03-03T04:02:31.727Z,10.60
2023-03-03T04:05:19.838Z,10.60
2023-03-03T04:07:49.325Z,10.60
2023-03-03T04:10:20.487Z,10.20
2023-03-03T04:12:50.509Z,10.60
2023-03-03T04:15:25.371Z,10.60
2023-03-03T04:17:54.490Z,10.60
2023-03-03T04:20:23.418Z,10.90
2023-03-03T04:22:52.868Z,10.60
2023-03-03T04:25:22.009Z,10.50
2023-03-03T04:27:53.103Z,10.50
2023-03-03T04:30:25.294Z,10.50
2023-03-03T04:32:57.002Z,10.50
2023-03-03T04:35:28.701Z,10.50
2023-03-03T04:37:58.662Z,10.50
2023-03-03T04:40:28.425Z,10.50
2023-03-03T04:42:57.614Z,10.50
2023-03-03T04:45:28.445Z,10.50
2023-03-03T04:47:57.535Z,10.50
2023-03-03T04:50:26.819Z,10.50
2023-03-03T04:52:56.239Z,10.50
2023-03-03T04:55:25.215Z,10.70
2023-03-03T04:57:54.360Z,10.30
2023-03-03T05:00:23.438Z,10.50
2023-03-03T05:02:54.564Z,10.60
2023-03-03T05:05:24.739Z,10.50
2023-03-03T05:07:57.868Z,10.60
2023-03-03T05:10:27.565Z,10.60
2023-03-03T05:13:01.208Z,10.60
2023-03-03T05:15:42.962Z,10.60
2023-03-03T05:18:30.679Z,10.60
2023-03-03T05:21:08.932Z,10.60
2023-03-03T05:23:38.733Z,11.10
2023-03-03T05:26:07.711Z,10.70
2023-03-03T05:28:36.655Z,10.70
2023-03-03T05:31:05.902Z,10.70
2023-03-03T05:33:36.228Z,10.70
2023-03-03T05:36:05.371Z,10.70
2023-03-03T05:38:53.026Z,10.80
2023-03-03T05:41:22.261Z,10.80
2023-03-03T05:44:09.787Z,10.80
2023-03-03T05:46:38.885Z,10.80
2023-03-03T05:49:09.476Z,10.80
2023-03-03T05:51:38.512Z,10.80
2023-03-03T05:54:07.709Z,10.90
2023-03-03T05:56:36.638Z,10.90
2023-03-03T05:59:05.586Z,10.90
2023-03-03T06:01:34.645Z,11.00
2023-03-03T06:04:03.643Z,11.00
2023-03-03T06:06:34.089Z,11.10
2023-03-03T06:09:03.042Z,11.10
2023-03-03T06:11:32.066Z,11.20
2023-03-03T06:14:01.104Z,11.20
2023-03-03T06:16:30.191Z,11.20
2023-03-03T06:18:59.119Z,11.30
2023-03-03T06:21:28.050Z,11.30
2023-03-03T06:23:58.664Z,11.30
2023-03-03T06:26:27.699Z,11.40
2023-03-03T06:28:56.990Z,11.40
2023-03-03T06:31:26.029Z,11.50
2023-03-03T06:33:55.378Z,11.50
2023-03-03T06:36:25.633Z,11.60
2023-03-03T06:38:54.617Z,11.60
2023-03-03T06:41:24.900Z,11.70
2023-03-03T06:43:53.801Z,11.70
2023-03-03T06:46:23.939Z,11.70
2023-03-03T06:48:52.883Z,11.80
2023-03-03T06:51:27.026Z,11.80
2023-03-03T06:54:15.886Z,11.80
2023-03-03T06:56:47.585Z,11.90
2023-03-03T06:59:18.853Z,11.90
2023-03-03T07:01:49.239Z,11.90
2023-03-03T07:04:29.088Z,12.00
2023-03-03T07:06:58.691Z,12.00
2023-03-03T07:09:29.778Z,12.00
2023-03-03T07:12:03.941Z,12.10
2023-03-03T07:14:55.998Z,12.10
2023-03-03T07:17:27.127Z,12.20
2023-03-03T07:19:56.153Z,12.20
2023-03-03T07:22:30.408Z,12.20
2023-03-03T07:25:02.274Z,12.30
2023-03-03T07:27:34.689Z,12.20
2023-03-03T07:30:23.400Z,12.30
2023-03-03T07:32:56.708Z,12.30
2023-03-03T07:35:47.515Z,12.30
2023-03-03T07:38:24.822Z,12.30
2023-03-03T07:40:55.605Z,12.70
2023-03-03T07:43:35.177Z,12.40
2023-03-03T07:46:18.734Z,12.40
2023-03-03T07:48:47.911Z,12.40
2023-03-03T07:51:25.551Z,12.40
2023-03-03T07:53:55.666Z,12.50
2023-03-03T07:56:31.116Z,12.50
2023-03-03T07:59:03.953Z,12.50
2023-03-03T08:01:43.549Z,12.60
2023-03-03T08:04:19.046Z,12.70
2023-03-03T08:07:16.715Z,12.70
2023-03-03T08:09:51.302Z,12.70
2023-03-03T08:12:43.037Z,12.70
2023-03-03T08:15:29.575Z,12.70
2023-03-03T08:17:58.576Z,12.60
2023-03-03T08:20:48.688Z,12.60
2023-03-03T08:23:19.476Z,12.60
2023-03-03T08:25:49.901Z,12.70
2023-03-03T08:28:19.009Z,12.70
2023-03-03T08:30:50.183Z,12.70
2023-03-03T08:33:20.389Z,12.80
2023-03-03T08:35:50.110Z,12.80
2023-03-03T08:38:22.098Z,12.80
2023-03-03T08:40:52.188Z,12.60
2023-03-03T08:43:23.073Z,12.80
2023-03-03T08:46:12.326Z,12.80
2023-03-03T08:48:41.434Z,12.80
2023-03-03T08:51:10.564Z,12.90
2023-03-03T08:53:39.663Z,13.00
2023-03-03T08:56:10.450Z,13.00
2023-03-03T08:58:41.990Z,13.10
2023-03-03T09:01:17.049Z,13.10
2023-03-03T09:03:46.503Z,13.10
2023-03-03T09:06:15.418Z,13.20
2023-03-03T09:08:44.414Z,13.20
2023-03-03T09:11:15.123Z,13.20
2023-03-03T09:13:44.077Z,13.20
2023-03-03T09:16:16.714Z,13.30
2023-03-03T09:18:46.486Z,13.30
2023-03-03T09:21:23.896Z,13.30
2023-03-03T09:23:57.303Z,13.30
2023-03-03T09:26:31.354Z,13.40
2023-03-03T09:29:11.428Z,13.40
2023-03-03T09:31:46.324Z,13.30
2023-03-03T09:34:23.751Z,13.40
2023-03-03T09:36:53.833Z,13.30
2023-03-03T09:39:24.920Z,13.20
2023-03-03T09:42:21.992Z,13.20
2023-03-03T09:45:06.025Z,13.30
2023-03-03T09:47:53.867Z,13.30
2023-03-03T09:50:33.531Z,13.30
2023-03-03T09:53:12.984Z,13.30
2023-03-03T09:55:52.117Z,13.30
2023-03-03T09:58:35.109Z,13.30
2023-03-03T10:01:20.721Z,13.30
2023-03-03T10:04:17.945Z,13.30
2023-03-03T10:06:50.955Z,13.30
2023-03-03T10:09:43.843Z,13.30
2023-03-03T10:12:19.287Z,13.30
2023-03-03T10:15:09.380Z,13.40
2023-03-03T10:17:49.539Z,13.40
2023-03-03T10:20:37.456Z,13.50
2023-03-03T10:23:28.071Z,13.50
2023-03-03T10:26:08.817Z,13.50
2023-03-03T10:29:00.566Z,13.60
2023-03-03T10:31:41.780Z,13.60
2023-03-03T10:34:22.825Z,13.60
2023-03-03T10:37:01.669Z,13.60
2023-03-03T10:39:50.004Z,13.60
2023-03-03T10:42:33.666Z,13.60
2023-03-03T10:45:19.613Z,13.60
2023-03-03T10:48:12.966Z,13.60
2023-03-03T10:50:52.653Z,13.70
2023-03-03T10:53:31.750Z,13.50
2023-03-03T10:56:51.787Z,13.50
2023-03-03T10:59:55.612Z,13.60
2023-03-03T11:02:34.625Z,13.60
2023-03-03T11:05:26.510Z,13.60
2023-03-03T11:08:01.152Z,13.70
2023-03-03T11:10:47.743Z,13.70
2023-03-03T11:13:32.166Z,13.70
2023-03-03T11:16:18.905Z,13.70
2023-03-03T11:19:02.459Z,13.70
2023-03-03T11:21:36.351Z,13.70
2023-03-03T11:24:27.285Z,13.70
2023-03-03T11:27:15.904Z,13.70
2023-03-03T11:29:58.738Z,13.70
2023-03-03T11:32:38.872Z,13.70
2023-03-03T11:35:24.800Z,13.70
2023-03-03T11:38:03.810Z,13.70
2023-03-03T11:40:43.140Z,13.70
2023-03-03T11:43:35.709Z,13.70
2023-03-03T11:46:10.524Z,13.70
2023-03-03T11:48:47.696Z,13.70
2023-03-03T11:51:23.813Z,13.70
2023-03-03T11:54:02.665Z,13.70
2023-03-03T11:56:40.325Z,13.70
2023-03-03T11:59:50.910Z,13.70
2023-03-03T12:02:44.419Z,13.60
2023-03-03T12:05:21.226Z,13.60
2023-03-03T12:07:59.646Z,13.60
2023-03-03T12:10:37.967Z,13.60
2023-03-03T12:13:15.146Z,13.70
2023-03-03T12:15:53.753Z,13.70
2023-03-03T12:18:51.980Z,13.70
2023-03-03T12:21:36.607Z,13.80
2023-03-03T12:24:20.474Z,13.80
2023-03-03T12:26:55.887Z,13.70
2023-03-03T12:29:30.447Z,13.60
2023-03-03T12:32:18.344Z,13.60
2023-03-03T12:34:54.494Z,13.60
2023-03-03T12:37:40.333Z,13.50
2023-03-03T12:40:17.159Z,13.50
2023-03-03T12:43:10.292Z,13.50
2023-03-03T12:45:57.009Z,13.40
2023-03-03T12:48:38.163Z,13.40
2023-03-03T12:51:16.520Z,13.40
2023-03-03T12:54:23.805Z,13.30
2023-03-03T12:56:56.826Z,13.40
2023-03-03T12:59:37.691Z,13.30
2023-03-03T13:02:30.773Z,13.30
2023-03-03T13:05:08.207Z,13.30
2023-03-03T13:07:43.103Z,13.20
2023-03-03T13:10:20.552Z,13.20
2023-03-03T13:12:57.360Z,13.20
2023-03-03T13:15:32.629Z,13.10
2023-03-03T13:18:31.205Z,13.10
2023-03-03T13:21:07.246Z,13.10
2023-03-03T13:23:48.976Z,13.00
2023-03-03T13:26:24.103Z,12.90
2023-03-03T13:29:13.304Z,12.90
2023-03-03T13:31:47.679Z,12.90
2023-03-03T13:34:26.675Z,12.90
2023-03-03T13:37:02.609Z,12.90
2023-03-03T13:39:35.723Z,12.80
2023-03-03T13:42:09.007Z,12.80
2023-03-03T13:44:42.519Z,12.80
2023-03-03T13:47:20.093Z,12.80
2023-03-03T13:50:02.008Z,12.70
2023-03-03T13:52:35.073Z,12.70
2023-03-03T13:55:15.507Z,12.70
2023-03-03T13:57:51.514Z,12.70
2023-03-03T14:00:33.907Z,12.60
2023-03-03T14:03:18.370Z,12.60
2023-03-03T14:05:49.962Z,12.60
2023-03-03T14:08:39.908Z,12.60
2023-03-03T14:11:12.815Z,12.60
2023-03-03T14:13:51.724Z,12.60
2023-03-03T14:16:37.774Z,12.60
2023-03-03T14:19:15.669Z,12.60
2023-03-03T14:21:51.149Z,12.60
2023-03-03T14:24:23.285Z,12.50
2023-03-03T14:26:54.303Z,12.50
2023-03-03T14:29:32.103Z,12.60
2023-03-03T14:32:39.377Z,12.50
2023-03-03T14:35:20.640Z,12.50
2023-03-03T14:37:51.942Z,12.50
2023-03-03T14:40:24.114Z,12.40
2023-03-03T14:42:56.903Z,12.30
2023-03-03T14:45:44.662Z,12.30
2023-03-03T14:48:18.538Z,12.30
2023-03-03T14:50:52.455Z,12.30
2023-03-03T14:53:34.397Z,12.30
2023-03-03T14:56:26.887Z,12.30
2023-03-03T14:58:56.829Z,12.40
2023-03-03T15:01:34.275Z,12.40
2023-03-03T15:04:05.845Z,12.30
2023-03-03T15:06:42.218Z,12.30
2023-03-03T15:09:32.923Z,12.20
2023-03-03T15:12:05.968Z,12.10
2023-03-03T15:14:39.738Z,12.10
2023-03-03T15:17:31.143Z,12.10
2023-03-03T15:20:25.828Z,12.10
2023-03-03T15:23:05.420Z,12.00
2023-03-03T15:25:43.681Z,12.00
2023-03-03T15:28:29.093Z,12.00
2023-03-03T15:31:05.763Z,12.00
2023-03-03T15:33:39.952Z,12.00
2023-03-03T15:36:16.419Z,12.00
2023-03-03T15:38:54.641Z,12.00
2023-03-03T15:41:35.237Z,11.90
2023-03-03T15:44:16.207Z,11.90
2023-03-03T15:47:06.297Z,11.90
2023-03-03T15:50:21.738Z,11.90
2023-03-03T15:53:06.079Z,11.80
2023-03-03T15:55:48.645Z,11.80
2023-03-03T15:58:44.799Z,11.80
2023-03-03T16:01:25.079Z,11.80
2023-03-03T16:03:59.397Z,11.80
2023-03-03T16:06:42.474Z,11.50
2023-03-03T16:09:25.395Z,11.80
2023-03-03T16:12:01.343Z,11.80
2023-03-03T16:15:00.342Z,11.80
2023-03-03T16:17:40.618Z,11.80
2023-03-03T16:20:20.917Z,11.80
2023-03-03T16:23:10.293Z,11.70
2023-03-03T16:25:51.778Z,11.70
2023-03-03T16:28:26.033Z,11.70
2023-03-03T16:31:03.190Z,11.70
2023-03-03T16:33:44.085Z,11.70
2023-03-03T16:36:26.914Z,11.70
2023-03-03T16:39:20.991Z,11.70
2023-03-03T16:41:57.312Z,11.70
2023-03-03T16:44:39.716Z,11.70
2023-03-03T16:47:31.934Z,11.60
2023-03-03T16:50:18.780Z,11.70
2023-03-03T16:52:53.992Z,11.60
2023-03-03T16:55:29.567Z,11.60
2023-03-03T16:58:10.156Z,11.60
2023-03-03T17:00:46.053Z,11.60
2023-03-03T17:03:41.938Z,11.60
2023-03-03T17:06:20.411Z,11.50
2023-03-03T17:09:00.366Z,11.50
2023-03-03T17:11:36.556Z,11.50
2023-03-03T17:14:25.552Z,11.50
2023-03-03T17:17:02.114Z,11.50
2023-03-03T17:19:47.606Z,11.50
2023-03-03T17:22:26.564Z,11.50
2023-03-03T17:25:18.520Z,11.50
2023-03-03T17:28:23.646Z,11.50
2023-03-03T17:31:03.931Z,11.40
2023-03-03T17:33:56.643Z,11.40
2023-03-03T17:36:34.156Z,11.40
2023-03-03T17:39:19.025Z,11.40
2023-03-03T17:41:57.027Z,11.40
2023-03-03T17:44:39.910Z,11.40
2023-03-03T17:47:13.567Z,11.40
2023-03-03T17:50:13.312Z,11.40
2023-03-03T17:53:10.772Z,11.40
2023-03-03T17:55:52.665Z,11.40
2023-03-03T17:58:45.133Z,11.40
2023-03-03T18:01:32.676Z,11.40
2023-03-03T18:04:26.608Z,11.40
2023-03-03T18:07:14.843Z,11.40
2023-03-03T18:10:01.805Z,11.40
2023-03-03T18:12:43.936Z,11.40
2023-03-03T18:15:45.360Z,11.50
2023-03-03T18:18:34.419Z,11.40
2023-03-03T18:21:10.173Z,11.40
2023-03-03T18:23:43.168Z,11.40
2023-03-03T18:26:40.405Z,11.40
2023-03-03T18:29:22.628Z,11.40
2023-03-03T18:32:05.375Z,11.40
2023-03-03T18:34:41.899Z,11.40
2023-03-03T18:37:33.622Z,11.40
2023-03-03T18:40:31.868Z,11.40
2023-03-03T18:43:01.643Z,11.40
2023-03-03T18:46:16.698Z,11.40
2023-03-03T18:48:53.130Z,11.40
2023-03-03T18:51:55.186Z,11.40
2023-03-03T18:54:34.820Z,11.40
2023-03-03T18:57:18.746Z,11.40
2023-03-03T18:59:58.904Z,11.30
2023-03-03T19:02:42.622Z,11.30
2023-03-03T19:05:23.608Z,11.30
2023-03-03T19:08:01.003Z,11.30
2023-03-03T19:10:51.730Z,11.30
2023-03-03T19:13:47.036Z,11.30
2023-03-03T19:16:40.042Z,11.20
2023-03-03T19:19:14.494Z,11.20
2023-03-03T19:21:48.254Z,11.20
2023-03-03T19:24:33.932Z,11.00
2023-03-03T19:27:20.320Z,11.10
2023-03-03T19:30:22.847Z,11.10
2023-03-03T19:33:32.481Z,11.10
2023-03-03T19:36:26.360Z,11.10
2023-03-03T19:39:10.251Z,11.10
2023-03-03T19:41:56.273Z,11.10
2023-03-03T19:44:44.573Z,11.10
2023-03-03T19:47:30.112Z,11.20
2023-03-03T19:50:10.540Z,11.20
2023-03-03T19:52:44.948Z,11.10
2023-03-03T19:55:25.813Z,11.20
2023-03-03T19:58:06.692Z,11.10
2023-03-03T20:00:42.659Z,11.10
2023-03-03T20:03:47.892Z,11.20
2023-03-03T20:06:38.468Z,11.20
2023-03-03T20:09:19.241Z,11.20
2023-03-03T20:12:04.425Z,11.20
2023-03-03T20:14:45.629Z,11.20
2023-03-03T20:17:36.736Z,11.20
2023-03-03T20:20:18.705Z,11.20
2023-03-03T20:23:18.921Z,11.20
2023-03-03T20:25:52.533Z,11.20
2023-03-03T20:28:53.786Z,11.20
2023-03-03T20:31:31.018Z,11.20
2023-03-03T20:34:10.995Z,11.20
2023-03-03T20:36:47.387Z,11.20
2023-03-03T20:39:25.044Z,11.20
2023-03-03T20:42:06.122Z,11.20
2023-03-03T20:44:55.681Z,11.20
2023-03-03T20:47:36.497Z,11.20
2023-03-03T20:50:17.127Z,11.20
2023-03-03T20:53:00.404Z,11.20
2023-03-03T20:55:44.209Z,11.20
2023-03-03T20:58:19.372Z,11.20
2023-03-03T21:00:54.216Z,11.20
2023-03-03T21:03:32.700Z,11.30
2023-03-03T21:06:03.150Z,11.30
2023-03-03T21:08:55.490Z,11.20
2023-03-03T21:11:41.435Z,11.20
2023-03-03T21:14:19.341Z,11.20
2023-03-03T21:16:48.774Z,11.20
2023-03-03T21:19:27.535Z,11.20
2023-03-03T21:21:57.540Z,11.20
2023-03-03T21:24:50.138Z,11.30
2023-03-03T21:27:29.484Z,11.30
2023-03-03T21:30:13.565Z,11.30
2023-03-03T21:32:45.517Z,11.30
2023-03-03T21:35:15.840Z,11.30
2023-03-03T21:38:03.665Z,11.30
2023-03-03T21:40:32.495Z,11.30
2023-03-03T21:43:03.392Z,11.30
2023-03-03T21:45:32.375Z,11.30
2023-03-03T21:48:03.345Z,11.30
2023-03-03T21:50:32.992Z,11.30
2023-03-03T21:53:01.836Z,11.30
2023-03-03T21:55:31.005Z,11.30
2023-03-03T21:58:00.119Z,11.30
2023-03-03T22:00:30.468Z,11.20
2023-03-03T22:03:00.250Z,11.20
2023-03-03T22:05:29.142Z,11.20
2023-03-03T22:07:58.037Z,11.20
2023-03-03T22:10:27.005Z,11.20
2023-03-03T22:12:56.036Z,11.30
2023-03-03T22:15:24.981Z,11.30
2023-03-03T22:17:56.606Z,11.20
2023-03-03T22:20:25.548Z,11.20
2023-03-03T22:22:54.343Z,11.20
2023-03-03T22:25:23.388Z,11.20
2023-03-03T22:27:52.251Z,11.20
2023-03-03T22:30:21.164Z,11.20
2023-03-03T22:32:52.569Z,11.20
2023-03-03T22:35:23.256Z,11.20
2023-03-03T22:37:52.448Z,11.20
2023-03-03T22:40:21.439Z,11.20
2023-03-03T22:42:50.313Z,11.20
2023-03-03T22:45:19.649Z,11.20
2023-03-03T22:47:48.464Z,11.20
2023-03-03T22:50:17.998Z,11.20
2023-03-03T22:52:48.497Z,11.10
2023-03-03T22:55:17.612Z,11.10
2023-03-03T22:57:46.424Z,11.10
2023-03-03T23:00:16.524Z,11.10
2023-03-03T23:02:45.415Z,11.10
2023-03-03T23:05:14.485Z,11.10
2023-03-03T23:07:43.395Z,11.10
2023-03-03T23:10:14.370Z,11.10
2023-03-03T23:12:43.313Z,11.10
2023-03-03T23:15:14.535Z,11.10
2023-03-03T23:17:44.141Z,11.10
2023-03-03T23:20:15.872Z,11.00
2023-03-03T23:22:44.686Z,11.00
2023-03-03T23:25:15.978Z,11.00
2023-03-03T23:27:45.600Z,11.00
2023-03-03T23:30:16.766Z,11.00
2023-03-03T23:32:45.836Z,11.00
2023-03-03T23:35:15.601Z,11.00
2023-03-03T23:37:45.191Z,11.00
2023-03-03T23:40:17.246Z,11.00
2023-03-03T23:42:46.564Z,11.00
2023-03-03T23:45:15.545Z,11.00
2023-03-03T23:47:44.834Z,11.00
2023-03-03T23:50:15.129Z,11.00
2023-03-03T23:52:44.020Z,11.00
2023-03-03T23:55:14.540Z,11.00
2023-03-03T23:57:43.587Z,11.10
